createdAt,value
2022-10-18T00:01:02.155Z,7.97
2022-10-18T00:03:30.235Z,7.77
2022-10-18T00:05:58.593Z,8.43
2022-10-18T00:08:26.740Z,8.00
2022-10-18T00:10:56.654Z,8.17
2022-10-18T00:13:24.948Z,7.33
2022-10-18T00:15:56.870Z,7.00
2022-10-18T00:18:25.360Z,6.83
2022-10-18T00:21:01.245Z,7.13
2022-10-18T00:23:30.615Z,7.30
2022-10-18T00:26:09.501Z,7.63
2022-10-18T00:28:39.167Z,6.87
2022-10-18T00:31:12.104Z,7.50
2022-10-18T00:33:40.181Z,7.37
2022-10-18T00:36:08.488Z,7.13
2022-10-18T00:38:36.919Z,7.67
2022-10-18T00:41:09.476Z,7.70
2022-10-18T00:43:53.239Z,7.57
2022-10-18T00:46:21.377Z,8.53
2022-10-18T00:48:50.333Z,9.67
2022-10-18T00:51:21.288Z,8.23
2022-10-18T00:53:49.627Z,8.10
2022-10-18T00:56:19.056Z,7.90
2022-10-18T00:58:48.870Z,7.70
2022-10-18T01:01:17.118Z,8.07
2022-10-18T01:03:45.000Z,7.57
2022-10-18T01:06:12.973Z,7.90
2022-10-18T01:08:51.380Z,10.03
2022-10-18T01:11:44.598Z,7.40
2022-10-18T01:14:23.727Z,7.13
2022-10-18T01:17:00.443Z,8.27
2022-10-18T01:19:54.004Z,7.60
2022-10-18T01:22:25.572Z,7.83
2022-10-18T01:25:07.278Z,7.00
2022-10-18T01:27:46.026Z,7.60
2022-10-18T01:30:37.768Z,6.67
2022-10-18T01:33:11.759Z,7.37
2022-10-18T01:35:44.567Z,6.83
2022-10-18T01:38:17.944Z,7.20
2022-10-18T01:40:49.839Z,7.40
2022-10-18T01:43:19.183Z,6.93
2022-10-18T01:45:49.290Z,6.77
2022-10-18T01:48:17.937Z,7.33
2022-10-18T01:50:45.690Z,6.57
2022-10-18T01:53:29.259Z,7.37
2022-10-18T01:56:15.432Z,7.00
2022-10-18T01:58:52.189Z,6.33
2022-10-18T02:01:29.718Z,6.33
2022-10-18T02:04:04.994Z,7.77
2022-10-18T02:06:38.060Z,7.90
2022-10-18T02:09:12.393Z,7.00
2022-10-18T02:11:42.673Z,7.93
2022-10-18T02:14:13.460Z,7.33
2022-10-18T02:16:46.583Z,6.83
2022-10-18T02:19:17.727Z,8.17
2022-10-18T02:21:48.071Z,8.07
2022-10-18T02:24:17.696Z,8.63
2022-10-18T02:26:45.806Z,7.77
2022-10-18T02:29:13.864Z,7.20
2022-10-18T02:31:46.260Z,7.20
2022-10-18T02:34:21.038Z,7.27
2022-10-18T02:36:51.638Z,6.80
2022-10-18T02:39:22.235Z,7.30
2022-10-18T02:41:51.565Z,7.70
2022-10-18T02:44:19.435Z,6.97
2022-10-18T02:46:49.502Z,7.03
2022-10-18T02:49:17.362Z,7.97
2022-10-18T02:51:45.584Z,7.87
2022-10-18T02:54:13.367Z,7.33
2022-10-18T02:56:41.216Z,6.67
2022-10-18T02:59:09.038Z,7.03
2022-10-18T03:01:37.195Z,7.50
2022-10-18T03:04:07.490Z,7.23
2022-10-18T03:06:35.751Z,7.00
2022-10-18T03:09:04.758Z,6.60
2022-10-18T03:11:32.903Z,6.90
2022-10-18T03:14:01.805Z,6.47
2022-10-18T03:16:30.931Z,6.87
2022-10-18T03:18:58.757Z,7.10
2022-10-18T03:21:28.232Z,6.67
2022-10-18T03:23:56.620Z,6.97
2022-10-18T03:26:24.789Z,7.70
2022-10-18T03:28:52.774Z,6.83
2022-10-18T03:31:20.699Z,6.57
2022-10-18T03:33:48.631Z,6.63
2022-10-18T03:36:16.591Z,6.40
2022-10-18T03:38:45.919Z,7.00
2022-10-18T03:41:14.074Z,6.53
2022-10-18T03:43:42.300Z,5.77
2022-10-18T03:46:10.459Z,5.87
2022-10-18T03:48:38.360Z,6.10
2022-10-18T03:51:06.657Z,6.23
2022-10-18T03:53:34.718Z,5.57
2022-10-18T03:56:04.363Z,6.10
2022-10-18T04:01:02.297Z,5.87
2022-10-18T04:03:29.981Z,5.67
2022-10-18T04:06:00.652Z,5.93
2022-10-18T04:08:28.716Z,5.30
2022-10-18T04:10:57.963Z,5.63
2022-10-18T04:13:27.466Z,5.40
2022-10-18T04:15:55.246Z,5.27
2022-10-18T04:18:23.092Z,5.63
2022-10-18T04:20:51.278Z,5.70
2022-10-18T04:23:19.157Z,5.40
2022-10-18T04:25:46.978Z,5.47
2022-10-18T04:28:14.674Z,4.70
2022-10-18T04:30:44.026Z,5.07
2022-10-18T04:33:12.115Z,4.53
2022-10-18T04:35:40.000Z,4.57
2022-10-18T04:38:08.123Z,5.13
2022-10-18T04:40:36.009Z,5.17
2022-10-18T04:43:04.056Z,5.47
2022-10-18T04:45:32.270Z,4.77
2022-10-18T04:48:01.867Z,4.70
2022-10-18T04:50:29.937Z,4.80
2022-10-18T04:52:57.749Z,4.40
2022-10-18T04:55:25.847Z,4.20
2022-10-18T04:57:54.428Z,4.43
2022-10-18T05:00:22.368Z,4.63
2022-10-18T05:02:50.286Z,4.53
2022-10-18T05:05:19.918Z,4.43
2022-10-18T05:07:48.023Z,5.07
2022-10-18T05:10:17.182Z,4.20
2022-10-18T05:12:44.969Z,4.10
2022-10-18T05:15:12.859Z,4.43
2022-10-18T05:17:41.815Z,4.27
2022-10-18T05:20:11.817Z,3.83
2022-10-18T05:22:41.816Z,4.20
2022-10-18T05:25:10.589Z,4.07
2022-10-18T05:27:38.613Z,4.20
2022-10-18T05:30:07.629Z,4.30
2022-10-18T05:32:35.507Z,4.10
2022-10-18T05:35:03.592Z,4.50
2022-10-18T05:37:32.382Z,4.43
2022-10-18T05:40:02.205Z,4.60
2022-10-18T05:42:30.501Z,4.47
2022-10-18T05:44:58.941Z,5.03
2022-10-18T05:47:27.747Z,4.40
2022-10-18T05:49:55.486Z,4.77
2022-10-18T05:52:23.257Z,4.60
2022-10-18T05:54:51.384Z,4.00
2022-10-18T05:57:21.118Z,5.97
2022-10-18T05:59:49.159Z,5.27
2022-10-18T06:02:19.664Z,4.80
2022-10-18T06:04:47.539Z,4.53
2022-10-18T06:07:15.759Z,4.23
2022-10-18T06:09:43.880Z,5.00
2022-10-18T06:12:11.779Z,4.90
2022-10-18T06:14:41.170Z,4.93
2022-10-18T06:17:09.166Z,4.40
2022-10-18T06:19:37.006Z,4.93
2022-10-18T06:22:04.881Z,4.80
2022-10-18T06:24:33.446Z,4.40
2022-10-18T06:27:01.487Z,4.90
2022-10-18T06:29:29.300Z,4.47
2022-10-18T06:31:58.893Z,4.77
2022-10-18T06:34:26.624Z,4.53
2022-10-18T06:36:58.001Z,4.23
2022-10-18T06:39:26.711Z,4.57
2022-10-18T06:41:54.893Z,4.20
2022-10-18T06:44:22.758Z,4.07
2022-10-18T06:46:53.534Z,4.30
2022-10-18T06:49:23.738Z,4.50
2022-10-18T06:51:51.583Z,4.30
2022-10-18T06:54:19.532Z,4.40
2022-10-18T06:56:47.645Z,4.10
2022-10-18T06:59:15.848Z,3.97
2022-10-18T07:01:45.143Z,3.67
2022-10-18T07:04:13.222Z,4.03
2022-10-18T07:06:42.735Z,4.50
2022-10-18T07:09:10.534Z,4.23
2022-10-18T07:11:38.503Z,3.83
2022-10-18T07:14:06.946Z,3.90
2022-10-18T07:16:36.208Z,4.40
2022-10-18T07:19:04.347Z,4.50
2022-10-18T07:21:32.409Z,4.27
2022-10-18T07:24:01.822Z,3.97
2022-10-18T07:26:31.885Z,4.40
2022-10-18T07:29:02.530Z,3.80
2022-10-18T07:31:30.825Z,4.20
2022-10-18T07:33:58.940Z,4.03
2022-10-18T07:36:27.029Z,3.93
2022-10-18T07:38:55.174Z,4.10
2022-10-18T07:41:26.594Z,4.60
2022-10-18T07:43:54.815Z,4.10
2022-10-18T07:46:24.219Z,4.43
2022-10-18T07:48:52.662Z,4.90
2022-10-18T07:51:21.399Z,4.90
2022-10-18T07:53:49.473Z,4.20
2022-10-18T07:56:21.608Z,4.83
2022-10-18T07:58:52.525Z,4.50
2022-10-18T08:01:21.601Z,4.87
2022-10-18T08:03:49.920Z,4.93
2022-10-18T08:06:19.587Z,5.00
2022-10-18T08:08:48.476Z,5.23
2022-10-18T08:11:18.534Z,4.80
2022-10-18T08:13:47.233Z,5.73
2022-10-18T08:16:19.440Z,5.27
2022-10-18T08:18:47.735Z,5.37
2022-10-18T08:21:17.416Z,5.63
2022-10-18T08:23:46.103Z,6.00
2022-10-18T08:26:15.733Z,5.70
2022-10-18T08:28:53.740Z,5.60
2022-10-18T08:31:28.063Z,5.30
2022-10-18T08:33:57.187Z,6.30
2022-10-18T08:36:26.388Z,6.03
2022-10-18T08:38:55.403Z,7.00
2022-10-18T08:41:47.535Z,7.27
2022-10-18T08:44:20.258Z,7.23
2022-10-18T08:46:54.002Z,6.97
2022-10-18T08:49:28.589Z,6.77
2022-10-18T08:51:58.249Z,7.93
2022-10-18T08:54:33.510Z,10.27
2022-10-18T08:57:07.712Z,7.83
2022-10-18T08:59:40.825Z,7.53
2022-10-18T09:02:21.951Z,6.83
2022-10-18T09:04:55.409Z,8.87
2022-10-18T09:07:45.731Z,10.73
2022-10-18T09:10:27.205Z,9.73
2022-10-18T09:13:29.132Z,10.30
2022-10-18T09:16:00.200Z,11.07
2022-10-18T09:18:43.425Z,12.27
2022-10-18T09:21:21.009Z,11.53
2022-10-18T09:23:51.265Z,11.30
2022-10-18T09:26:21.767Z,11.70
2022-10-18T09:29:10.482Z,13.00
2022-10-18T09:31:47.383Z,13.67
2022-10-18T09:34:26.922Z,13.17
2022-10-18T09:36:55.727Z,13.73
2022-10-18T09:39:26.746Z,14.23
2022-10-18T09:41:58.359Z,15.27
2022-10-18T09:44:28.781Z,15.57
2022-10-18T09:47:01.611Z,15.43
2022-10-18T09:49:34.754Z,17.00
2022-10-18T09:52:08.959Z,16.50
2022-10-18T09:54:41.496Z,15.63
2022-10-18T09:57:14.540Z,15.90
2022-10-18T09:59:44.015Z,17.40
2022-10-18T10:02:15.514Z,16.30
2022-10-18T10:04:45.877Z,17.60
2022-10-18T10:07:17.448Z,17.30
2022-10-18T10:09:49.357Z,17.00
2022-10-18T10:12:29.840Z,16.73
2022-10-18T10:15:09.578Z,18.17
2022-10-18T10:17:37.984Z,16.87
2022-10-18T10:20:18.927Z,18.60
2022-10-18T10:22:47.800Z,19.37
2022-10-18T10:25:27.049Z,19.33
2022-10-18T10:27:55.146Z,20.47
2022-10-18T10:30:26.561Z,19.30
2022-10-18T10:32:56.527Z,19.67
2022-10-18T10:38:26.976Z,18.47
2022-10-18T10:40:55.782Z,20.03
2022-10-18T10:43:43.311Z,17.93
2022-10-18T10:46:13.230Z,16.97
2022-10-18T10:48:48.500Z,17.43
2022-10-18T10:51:28.466Z,18.27
2022-10-18T10:54:01.086Z,16.47
2022-10-18T10:56:31.188Z,15.57
2022-10-18T10:59:08.295Z,17.10
2022-10-18T11:01:36.449Z,16.23
2022-10-18T11:04:24.669Z,15.00
2022-10-18T11:07:04.127Z,14.60
2022-10-18T11:09:45.245Z,14.57
2022-10-18T11:12:23.807Z,14.17
2022-10-18T11:14:57.053Z,14.90
2022-10-18T11:17:32.501Z,14.53
2022-10-18T11:20:13.356Z,14.23
2022-10-18T11:22:48.268Z,13.03
2022-10-18T11:25:18.340Z,14.03
2022-10-18T11:27:55.815Z,13.63
2022-10-18T11:30:42.995Z,13.47
2022-10-18T11:33:33.688Z,13.77
2022-10-18T11:36:17.434Z,12.80
2022-10-18T11:38:54.693Z,10.87
2022-10-18T11:41:32.036Z,10.77
2022-10-18T11:44:04.090Z,11.27
2022-10-18T11:46:45.543Z,10.30
2022-10-18T11:49:48.845Z,10.40
2022-10-18T11:52:26.727Z,9.47
2022-10-18T11:55:13.637Z,9.70
2022-10-18T11:57:47.725Z,9.53
2022-10-18T12:00:39.528Z,9.40
2022-10-18T12:03:23.893Z,9.70
2022-10-18T12:05:54.152Z,8.77
2022-10-18T12:08:26.807Z,9.40
2022-10-18T12:11:06.563Z,8.53
2022-10-18T12:13:40.624Z,9.10
2022-10-18T12:16:10.831Z,7.73
2022-10-18T12:18:49.550Z,6.80
2022-10-18T12:21:25.342Z,6.27
2022-10-18T12:23:56.777Z,6.70
2022-10-18T12:26:28.306Z,5.97
2022-10-18T12:29:14.168Z,5.90
2022-10-18T12:31:47.504Z,6.00
2022-10-18T12:34:29.100Z,6.37
2022-10-18T12:37:12.264Z,6.53
2022-10-18T12:40:08.975Z,6.63
2022-10-18T12:42:35.036Z,7.20
2022-10-18T12:45:06.945Z,7.03
2022-10-18T12:47:35.479Z,6.70
2022-10-18T12:50:07.781Z,6.10
2022-10-18T12:52:37.096Z,6.70
2022-10-18T12:55:29.459Z,7.00
2022-10-18T12:58:24.792Z,6.90
2022-10-18T13:01:04.579Z,6.00
2022-10-18T13:03:44.223Z,6.20
2022-10-18T13:06:12.542Z,6.87
2022-10-18T13:08:43.247Z,5.90
2022-10-18T13:11:35.959Z,6.57
2022-10-18T13:14:23.348Z,6.13
2022-10-18T13:16:57.501Z,5.17
2022-10-18T13:19:33.423Z,4.10
2022-10-18T13:22:23.318Z,4.77
2022-10-18T13:25:04.122Z,3.97
2022-10-18T13:27:43.567Z,4.37
2022-10-18T13:30:28.419Z,3.73
2022-10-18T13:33:06.436Z,4.03
2022-10-18T13:35:46.916Z,3.53
2022-10-18T13:38:33.308Z,4.20
2022-10-18T13:41:03.365Z,3.40
2022-10-18T13:44:20.262Z,3.50
2022-10-18T13:47:13.391Z,3.67
2022-10-18T13:49:59.197Z,4.10
2022-10-18T13:52:40.897Z,3.23
2022-10-18T13:55:31.187Z,3.13
2022-10-18T13:58:09.012Z,3.47
2022-10-18T14:00:53.025Z,2.80
2022-10-18T14:03:58.510Z,2.70
2022-10-18T14:06:29.587Z,2.83
2022-10-18T14:09:09.722Z,3.13
2022-10-18T14:11:51.187Z,2.97
2022-10-18T14:14:23.805Z,2.87
2022-10-18T14:16:57.708Z,2.73
2022-10-18T14:19:31.253Z,3.07
2022-10-18T14:22:07.414Z,3.13
2022-10-18T14:24:35.807Z,2.43
2022-10-18T14:27:17.862Z,2.40
2022-10-18T14:29:45.932Z,2.53
2022-10-18T14:32:25.654Z,2.10
2022-10-18T14:35:09.168Z,2.40
2022-10-18T14:37:44.150Z,2.13
2022-10-18T14:40:28.000Z,2.33
2022-10-18T14:42:55.924Z,2.70
2022-10-18T14:45:24.526Z,2.20
2022-10-18T14:47:52.565Z,2.40
2022-10-18T14:50:23.039Z,2.67
2022-10-18T14:52:52.407Z,2.33
2022-10-18T14:55:26.116Z,2.10
2022-10-18T14:57:55.597Z,2.37
2022-10-18T15:00:29.307Z,1.90
2022-10-18T15:02:57.579Z,2.17
2022-10-18T15:05:27.684Z,2.30
2022-10-18T15:08:00.041Z,2.20
2022-10-18T15:10:31.541Z,2.13
2022-10-18T15:13:11.387Z,2.20
2022-10-18T15:15:40.365Z,2.10
2022-10-18T15:18:09.461Z,2.00
2022-10-18T15:20:42.660Z,1.97
2022-10-18T15:23:24.797Z,1.93
2022-10-18T15:25:54.247Z,2.00
2022-10-18T15:28:30.316Z,2.40
2022-10-18T15:30:58.825Z,1.97
2022-10-18T15:33:27.984Z,2.20
2022-10-18T15:35:56.707Z,2.20
2022-10-18T15:38:29.768Z,1.80
2022-10-18T15:40:57.663Z,1.70
2022-10-18T15:43:37.296Z,2.07
2022-10-18T15:46:07.455Z,1.60
2022-10-18T15:48:38.003Z,2.60
2022-10-18T15:51:07.189Z,1.90
2022-10-18T15:53:43.266Z,2.30
2022-10-18T15:56:28.674Z,1.80
2022-10-18T15:58:58.226Z,2.23
2022-10-18T16:01:34.593Z,2.03
2022-10-18T16:04:08.670Z,1.87
2022-10-18T16:06:38.655Z,1.90
2022-10-18T16:09:08.479Z,1.80
2022-10-18T16:11:36.386Z,2.07
2022-10-18T16:14:04.115Z,1.97
2022-10-18T16:16:31.993Z,2.27
2022-10-18T16:19:00.087Z,2.17
2022-10-18T16:21:30.558Z,2.70
2022-10-18T16:23:58.886Z,2.33
2022-10-18T16:26:29.960Z,2.13
2022-10-18T16:28:58.261Z,2.10
2022-10-18T16:31:29.946Z,2.20
2022-10-18T16:33:58.280Z,2.30
2022-10-18T16:36:29.449Z,2.13
2022-10-18T16:38:57.941Z,2.27
2022-10-18T16:41:26.181Z,2.00
2022-10-18T16:43:56.471Z,1.77
2022-10-18T16:46:27.515Z,2.20
2022-10-18T16:48:56.357Z,2.50
2022-10-18T16:51:25.358Z,2.50
2022-10-18T16:53:53.720Z,1.50
2022-10-18T16:56:24.048Z,2.20
2022-10-18T16:58:52.406Z,2.47
2022-10-18T17:01:23.308Z,2.33
2022-10-18T17:03:52.356Z,2.60
2022-10-18T17:06:22.645Z,6.77
2022-10-18T17:08:51.450Z,6.00
2022-10-18T17:11:21.307Z,3.90
2022-10-18T17:13:49.429Z,2.80
2022-10-18T17:16:24.954Z,3.00
2022-10-18T17:18:53.059Z,2.57
2022-10-18T17:21:21.701Z,2.60
2022-10-18T17:23:49.807Z,2.53
2022-10-18T17:26:28.768Z,3.23
2022-10-18T17:28:59.722Z,3.97
2022-10-18T17:31:30.472Z,3.40
2022-10-18T17:34:01.655Z,2.10
2022-10-18T17:36:31.053Z,2.10
2022-10-18T17:38:59.892Z,2.10
2022-10-18T17:41:27.952Z,2.37
2022-10-18T17:43:55.722Z,1.70
2022-10-18T17:46:23.714Z,1.77
2022-10-18T17:48:54.314Z,2.10
2022-10-18T17:51:22.843Z,1.90
2022-10-18T17:53:50.870Z,1.93
2022-10-18T17:56:18.609Z,2.10
2022-10-18T17:58:47.065Z,1.50
2022-10-18T18:01:16.883Z,2.00
2022-10-18T18:03:44.756Z,1.83
2022-10-18T18:06:17.228Z,2.50
2022-10-18T18:08:45.556Z,2.30
2022-10-18T18:11:13.775Z,2.33
2022-10-18T18:13:41.835Z,2.60
2022-10-18T18:16:14.894Z,2.60
2022-10-18T18:18:43.536Z,3.03
2022-10-18T18:21:11.433Z,2.33
2022-10-18T18:23:40.998Z,2.23
2022-10-18T18:26:09.315Z,2.27
2022-10-18T18:28:38.094Z,2.40
2022-10-18T18:31:07.681Z,2.57
2022-10-18T18:33:35.985Z,2.20
2022-10-18T18:36:05.196Z,2.60
2022-10-18T18:38:34.066Z,2.60
2022-10-18T18:41:09.490Z,2.30
2022-10-18T18:43:39.530Z,2.37
2022-10-18T18:46:10.496Z,1.90
2022-10-18T18:48:38.897Z,2.00
2022-10-18T18:51:09.548Z,2.23
2022-10-18T18:53:38.628Z,2.10
2022-10-18T18:56:11.009Z,2.10
2022-10-18T18:58:40.376Z,2.60
2022-10-18T19:01:09.680Z,2.93
2022-10-18T19:03:40.467Z,2.30
2022-10-18T19:06:10.705Z,2.60
2022-10-18T19:08:40.307Z,2.10
2022-10-18T19:11:09.920Z,2.23
2022-10-18T19:13:38.263Z,2.50
2022-10-18T19:16:19.799Z,2.63
2022-10-18T19:18:52.692Z,2.90
2022-10-18T19:21:21.598Z,2.97
2022-10-18T19:23:50.389Z,2.50
2022-10-18T19:26:37.867Z,2.33
2022-10-18T19:29:09.171Z,2.13
2022-10-18T19:31:37.197Z,2.57
2022-10-18T19:34:07.780Z,2.20
2022-10-18T19:36:36.284Z,2.30
2022-10-18T19:39:05.383Z,2.40
2022-10-18T19:41:35.108Z,2.33
2022-10-18T19:44:03.223Z,1.90
2022-10-18T19:46:31.764Z,2.47
2022-10-18T19:49:01.219Z,2.60
2022-10-18T19:51:29.337Z,2.50
2022-10-18T19:53:58.184Z,2.80
2022-10-18T19:56:27.502Z,2.70
2022-10-18T19:58:58.702Z,2.43
2022-10-18T20:01:27.575Z,2.50
2022-10-18T20:03:55.603Z,2.30
2022-10-18T20:06:23.893Z,2.47
2022-10-18T20:08:52.421Z,2.37
2022-10-18T20:11:22.434Z,2.30
2022-10-18T20:13:50.806Z,2.40
2022-10-18T20:16:27.959Z,2.47
2022-10-18T20:18:58.374Z,2.17
2022-10-18T20:21:26.855Z,2.33
2022-10-18T20:23:55.458Z,2.30
2022-10-18T20:26:25.578Z,2.43
2022-10-18T20:28:56.974Z,2.13
2022-10-18T20:31:28.782Z,2.50
2022-10-18T20:33:58.417Z,2.23
2022-10-18T20:36:27.201Z,2.43
2022-10-18T20:38:56.028Z,2.00
2022-10-18T20:41:26.704Z,2.70
2022-10-18T20:43:56.547Z,2.50
2022-10-18T20:46:24.919Z,2.40
2022-10-18T20:48:55.185Z,2.40
2022-10-18T20:51:23.784Z,2.53
2022-10-18T20:53:53.312Z,2.63
2022-10-18T20:56:22.575Z,2.90
2022-10-18T20:58:52.477Z,3.10
2022-10-18T21:01:22.574Z,2.43
2022-10-18T21:03:52.212Z,2.87
2022-10-18T21:06:25.125Z,2.30
2022-10-18T21:08:54.292Z,2.63
2022-10-18T21:11:22.895Z,2.67
2022-10-18T21:13:51.818Z,2.40
2022-10-18T21:16:19.706Z,2.63
2022-10-18T21:18:47.927Z,2.70
2022-10-18T21:21:17.438Z,2.60
2022-10-18T21:23:47.097Z,2.90
2022-10-18T21:26:16.527Z,2.63
2022-10-18T21:28:45.227Z,2.63
2022-10-18T21:31:15.947Z,2.67
2022-10-18T21:33:45.370Z,2.57
2022-10-18T21:36:14.009Z,2.43
2022-10-18T21:38:46.954Z,2.60
2022-10-18T21:41:17.044Z,2.70
2022-10-18T21:43:46.594Z,2.80
2022-10-18T21:46:15.916Z,2.87
2022-10-18T21:48:45.474Z,3.00
2022-10-18T21:51:14.376Z,2.30
2022-10-18T21:53:43.781Z,2.63
2022-10-18T21:56:14.986Z,2.70
2022-10-18T21:58:43.751Z,3.03
2022-10-18T22:01:12.919Z,2.40
2022-10-18T22:03:41.316Z,2.37
2022-10-18T22:06:14.172Z,2.60
2022-10-18T22:08:42.922Z,2.20
2022-10-18T22:11:12.561Z,2.57
2022-10-18T22:13:41.955Z,2.23
2022-10-18T22:16:12.232Z,2.17
2022-10-18T22:18:40.143Z,2.13
2022-10-18T22:21:10.458Z,2.40
2022-10-18T22:23:39.717Z,2.43
2022-10-18T22:26:11.223Z,2.10
2022-10-18T22:28:41.569Z,2.50
2022-10-18T22:31:15.902Z,2.10
2022-10-18T22:33:44.193Z,2.10
2022-10-18T22:36:12.469Z,2.10
2022-10-18T22:38:40.742Z,2.30
2022-10-18T22:41:10.806Z,2.27
2022-10-18T22:43:41.113Z,2.20
2022-10-18T22:46:10.682Z,2.40
2022-10-18T22:48:39.611Z,4.10
2022-10-18T22:51:09.687Z,2.40
2022-10-18T22:53:38.971Z,2.07
2022-10-18T22:56:07.732Z,2.40
2022-10-18T22:58:36.556Z,2.27
2022-10-18T23:01:07.773Z,2.30
2022-10-18T23:03:36.633Z,2.53
2022-10-18T23:06:05.334Z,2.43
2022-10-18T23:08:33.872Z,2.40
2022-10-18T23:11:01.890Z,2.60
2022-10-18T23:13:31.053Z,2.23
2022-10-18T23:16:04.639Z,2.57
2022-10-18T23:18:34.476Z,2.40
2022-10-18T23:21:03.386Z,2.53
2022-10-18T23:23:34.797Z,2.30
2022-10-18T23:26:04.484Z,2.40
2022-10-18T23:28:35.009Z,2.40
2022-10-18T23:31:07.620Z,2.50
2022-10-18T23:33:37.098Z,2.50
2022-10-18T23:36:05.913Z,2.30
2022-10-18T23:38:34.360Z,2.43
2022-10-18T23:41:02.572Z,2.30
2022-10-18T23:43:30.674Z,2.60
2022-10-18T23:45:58.536Z,2.03
2022-10-18T23:48:26.546Z,2.17
2022-10-18T23:50:56.085Z,2.60
2022-10-18T23:53:24.384Z,2.53
2022-10-18T23:55:56.843Z,2.60
2022-10-18T23:58:25.982Z,2.43
